sensor_id;sensor_type;location;lat;lon;timestamp;P1;durP1;ratioP1;P2;durP2;ratioP2
84353;SDS011;74538;43.522;1.516;2024-01-27T00:00:16;6.67;;;5.00;;
84353;SDS011;74538;43.522;1.516;2024-01-27T00:02:43;8.80;;;5.57;;
84353;SDS011;74538;43.522;1.516;2024-01-27T00:05:08;6.67;;;5.23;;
84353;SDS011;74538;43.522;1.516;2024-01-27T00:07:34;6.38;;;5.07;;
84353;SDS011;74538;43.522;1.516;2024-01-27T00:09:59;6.97;;;5.30;;
84353;SDS011;74538;43.522;1.516;2024-01-27T00:12:25;6.43;;;4.80;;
84353;SDS011;74538;43.522;1.516;2024-01-27T00:14:51;7.35;;;5.65;;
84353;SDS011;74538;43.522;1.516;2024-01-27T00:17:16;7.40;;;5.30;;
84353;SDS011;74538;43.522;1.516;2024-01-27T00:19:41;8.83;;;5.50;;
84353;SDS011;74538;43.522;1.516;2024-01-27T00:22:07;6.47;;;4.82;;
84353;SDS011;74538;43.522;1.516;2024-01-27T00:24:33;7.77;;;5.60;;
84353;SDS011;74538;43.522;1.516;2024-01-27T00:26:59;6.70;;;5.38;;
84353;SDS011;74538;43.522;1.516;2024-01-27T00:29:25;6.68;;;5.35;;
84353;SDS011;74538;43.522;1.516;2024-01-27T00:31:50;8.03;;;5.37;;
84353;SDS011;74538;43.522;1.516;2024-01-27T00:34:16;8.73;;;5.90;;
84353;SDS011;74538;43.522;1.516;2024-01-27T00:36:42;7.18;;;5.75;;
84353;SDS011;74538;43.522;1.516;2024-01-27T00:39:13;7.70;;;5.55;;
84353;SDS011;74538;43.522;1.516;2024-01-27T00:41:42;8.60;;;6.27;;
84353;SDS011;74538;43.522;1.516;2024-01-27T00:44:08;7.32;;;5.82;;
84353;SDS011;74538;43.522;1.516;2024-01-27T00:46:34;8.30;;;5.72;;
84353;SDS011;74538;43.522;1.516;2024-01-27T00:48:59;7.47;;;5.60;;
84353;SDS011;74538;43.522;1.516;2024-01-27T00:51:24;7.37;;;6.00;;
84353;SDS011;74538;43.522;1.516;2024-01-27T00:53:50;7.13;;;5.40;;
84353;SDS011;74538;43.522;1.516;2024-01-27T00:56:15;8.07;;;6.10;;
84353;SDS011;74538;43.522;1.516;2024-01-27T00:58:41;7.13;;;5.40;;
84353;SDS011;74538;43.522;1.516;2024-01-27T01:01:06;6.67;;;5.37;;
84353;SDS011;74538;43.522;1.516;2024-01-27T01:03:32;7.40;;;5.80;;
84353;SDS011;74538;43.522;1.516;2024-01-27T01:05:57;7.47;;;5.85;;
84353;SDS011;74538;43.522;1.516;2024-01-27T01:08:22;7.17;;;5.70;;
84353;SDS011;74538;43.522;1.516;2024-01-27T01:10:48;7.30;;;5.63;;
84353;SDS011;74538;43.522;1.516;2024-01-27T01:13:13;7.27;;;5.50;;
84353;SDS011;74538;43.522;1.516;2024-01-27T01:15:39;7.15;;;5.88;;
84353;SDS011;74538;43.522;1.516;2024-01-27T01:18:05;7.73;;;5.80;;
84353;SDS011;74538;43.522;1.516;2024-01-27T01:20:30;7.13;;;5.78;;
84353;SDS011;74538;43.522;1.516;2024-01-27T01:22:57;6.67;;;5.27;;
84353;SDS011;74538;43.522;1.516;2024-01-27T01:25:23;8.02;;;5.63;;
84353;SDS011;74538;43.522;1.516;2024-01-27T01:27:48;8.13;;;5.53;;
84353;SDS011;74538;43.522;1.516;2024-01-27T01:30:15;7.28;;;5.68;;
84353;SDS011;74538;43.522;1.516;2024-01-27T01:32:41;7.22;;;5.53;;
84353;SDS011;74538;43.522;1.516;2024-01-27T01:35:07;7.07;;;5.80;;
84353;SDS011;74538;43.522;1.516;2024-01-27T01:37:33;7.87;;;5.80;;
84353;SDS011;74538;43.522;1.516;2024-01-27T01:39:58;7.93;;;5.90;;
84353;SDS011;74538;43.522;1.516;2024-01-27T01:42:24;6.70;;;5.23;;
84353;SDS011;74538;43.522;1.516;2024-01-27T01:44:50;7.50;;;5.80;;
84353;SDS011;74538;43.522;1.516;2024-01-27T01:47:16;7.07;;;4.95;;
84353;SDS011;74538;43.522;1.516;2024-01-27T01:49:42;6.38;;;4.88;;
84353;SDS011;74538;43.522;1.516;2024-01-27T01:52:08;7.63;;;5.10;;
84353;SDS011;74538;43.522;1.516;2024-01-27T01:54:33;6.78;;;4.75;;
84353;SDS011;74538;43.522;1.516;2024-01-27T01:56:59;8.17;;;5.53;;
84353;SDS011;74538;43.522;1.516;2024-01-27T01:59:25;6.63;;;5.07;;
84353;SDS011;74538;43.522;1.516;2024-01-27T02:01:51;6.13;;;5.15;;
84353;SDS011;74538;43.522;1.516;2024-01-27T02:04:16;6.97;;;5.10;;
84353;SDS011;74538;43.522;1.516;2024-01-27T02:06:42;7.22;;;5.10;;
84353;SDS011;74538;43.522;1.516;2024-01-27T02:09:07;6.40;;;4.93;;
84353;SDS011;74538;43.522;1.516;2024-01-27T02:11:34;7.80;;;5.47;;
84353;SDS011;74538;43.522;1.516;2024-01-27T02:14:00;6.83;;;4.93;;
84353;SDS011;74538;43.522;1.516;2024-01-27T02:16:26;6.85;;;4.78;;
84353;SDS011;74538;43.522;1.516;2024-01-27T02:18:51;7.27;;;5.30;;
84353;SDS011;74538;43.522;1.516;2024-01-27T02:21:16;6.57;;;4.90;;
84353;SDS011;74538;43.522;1.516;2024-01-27T02:23:42;6.43;;;4.53;;
84353;SDS011;74538;43.522;1.516;2024-01-27T02:26:07;6.18;;;4.78;;
84353;SDS011;74538;43.522;1.516;2024-01-27T02:28:33;6.33;;;4.63;;
84353;SDS011;74538;43.522;1.516;2024-01-27T02:30:58;6.30;;;4.63;;
84353;SDS011;74538;43.522;1.516;2024-01-27T02:33:28;5.82;;;4.75;;
84353;SDS011;74538;43.522;1.516;2024-01-27T02:35:54;6.15;;;4.75;;
84353;SDS011;74538;43.522;1.516;2024-01-27T02:38:19;6.80;;;4.73;;
84353;SDS011;74538;43.522;1.516;2024-01-27T02:40:45;6.57;;;5.10;;
84353;SDS011;74538;43.522;1.516;2024-01-27T02:43:10;5.50;;;4.10;;
84353;SDS011;74538;43.522;1.516;2024-01-27T02:45:36;7.90;;;4.93;;
84353;SDS011;74538;43.522;1.516;2024-01-27T02:48:02;6.33;;;4.67;;
84353;SDS011;74538;43.522;1.516;2024-01-27T02:50:27;5.90;;;4.32;;
84353;SDS011;74538;43.522;1.516;2024-01-27T02:52:53;5.83;;;4.40;;
84353;SDS011;74538;43.522;1.516;2024-01-27T02:55:18;6.30;;;4.60;;
84353;SDS011;74538;43.522;1.516;2024-01-27T02:57:43;6.30;;;4.37;;
84353;SDS011;74538;43.522;1.516;2024-01-27T03:00:09;5.32;;;4.30;;
84353;SDS011;74538;43.522;1.516;2024-01-27T03:02:35;5.53;;;4.13;;
84353;SDS011;74538;43.522;1.516;2024-01-27T03:05:00;6.00;;;4.32;;
84353;SDS011;74538;43.522;1.516;2024-01-27T03:07:26;5.63;;;3.80;;
84353;SDS011;74538;43.522;1.516;2024-01-27T03:09:51;6.20;;;4.37;;
84353;SDS011;74538;43.522;1.516;2024-01-27T03:12:16;5.60;;;4.20;;
84353;SDS011;74538;43.522;1.516;2024-01-27T03:14:43;6.43;;;3.88;;
84353;SDS011;74538;43.522;1.516;2024-01-27T03:17:09;5.72;;;3.95;;
84353;SDS011;74538;43.522;1.516;2024-01-27T03:19:35;5.93;;;3.87;;
84353;SDS011;74538;43.522;1.516;2024-01-27T03:22:00;4.97;;;3.70;;
84353;SDS011;74538;43.522;1.516;2024-01-27T03:24:26;5.25;;;3.97;;
84353;SDS011;74538;43.522;1.516;2024-01-27T03:26:51;5.10;;;3.70;;
84353;SDS011;74538;43.522;1.516;2024-01-27T03:29:16;5.87;;;3.87;;
84353;SDS011;74538;43.522;1.516;2024-01-27T03:31:42;5.50;;;3.80;;
84353;SDS011;74538;43.522;1.516;2024-01-27T03:34:07;5.63;;;4.32;;
84353;SDS011;74538;43.522;1.516;2024-01-27T03:36:33;5.73;;;3.60;;
84353;SDS011;74538;43.522;1.516;2024-01-27T03:38:58;5.30;;;3.83;;
84353;SDS011;74538;43.522;1.516;2024-01-27T03:41:24;4.75;;;3.58;;
84353;SDS011;74538;43.522;1.516;2024-01-27T03:43:50;5.73;;;4.07;;
84353;SDS011;74538;43.522;1.516;2024-01-27T03:46:15;5.00;;;3.60;;
84353;SDS011;74538;43.522;1.516;2024-01-27T03:48:41;5.93;;;3.77;;
84353;SDS011;74538;43.522;1.516;2024-01-27T03:51:07;4.95;;;3.58;;
84353;SDS011;74538;43.522;1.516;2024-01-27T03:53:32;5.13;;;3.47;;
84353;SDS011;74538;43.522;1.516;2024-01-27T03:55:58;5.10;;;3.65;;
84353;SDS011;74538;43.522;1.516;2024-01-27T03:58:24;4.78;;;3.72;;
84353;SDS011;74538;43.522;1.516;2024-01-27T04:00:50;5.10;;;3.53;;
84353;SDS011;74538;43.522;1.516;2024-01-27T04:03:16;4.63;;;3.50;;
84353;SDS011;74538;43.522;1.516;2024-01-27T04:05:42;4.90;;;3.50;;
84353;SDS011;74538;43.522;1.516;2024-01-27T04:08:07;4.57;;;3.22;;
84353;SDS011;74538;43.522;1.516;2024-01-27T04:10:33;4.50;;;3.40;;
84353;SDS011;74538;43.522;1.516;2024-01-27T04:12:59;4.50;;;3.33;;
84353;SDS011;74538;43.522;1.516;2024-01-27T04:15:24;4.50;;;3.10;;
84353;SDS011;74538;43.522;1.516;2024-01-27T04:17:50;4.50;;;3.40;;
84353;SDS011;74538;43.522;1.516;2024-01-27T04:20:15;4.30;;;3.13;;
84353;SDS011;74538;43.522;1.516;2024-01-27T04:22:41;4.33;;;3.20;;
84353;SDS011;74538;43.522;1.516;2024-01-27T04:25:07;4.00;;;2.97;;
84353;SDS011;74538;43.522;1.516;2024-01-27T04:27:36;4.37;;;3.00;;
84353;SDS011;74538;43.522;1.516;2024-01-27T04:30:02;4.20;;;2.90;;
84353;SDS011;74538;43.522;1.516;2024-01-27T04:32:28;4.77;;;3.17;;
84353;SDS011;74538;43.522;1.516;2024-01-27T04:34:53;4.18;;;3.10;;
84353;SDS011;74538;43.522;1.516;2024-01-27T04:37:19;4.47;;;3.07;;
84353;SDS011;74538;43.522;1.516;2024-01-27T04:39:44;4.30;;;3.00;;
84353;SDS011;74538;43.522;1.516;2024-01-27T04:42:10;4.23;;;3.00;;
84353;SDS011;74538;43.522;1.516;2024-01-27T04:44:35;4.70;;;3.20;;
84353;SDS011;74538;43.522;1.516;2024-01-27T04:47:05;4.22;;;2.80;;
84353;SDS011;74538;43.522;1.516;2024-01-27T04:49:30;4.20;;;3.03;;
84353;SDS011;74538;43.522;1.516;2024-01-27T04:51:56;4.30;;;3.10;;
84353;SDS011;74538;43.522;1.516;2024-01-27T04:54:21;4.30;;;3.00;;
84353;SDS011;74538;43.522;1.516;2024-01-27T04:56:47;4.57;;;2.90;;
84353;SDS011;74538;43.522;1.516;2024-01-27T04:59:12;4.60;;;3.20;;
84353;SDS011;74538;43.522;1.516;2024-01-27T05:01:38;4.90;;;3.00;;
84353;SDS011;74538;43.522;1.516;2024-01-27T05:04:03;3.83;;;2.80;;
84353;SDS011;74538;43.522;1.516;2024-01-27T05:06:29;5.03;;;3.30;;
84353;SDS011;74538;43.522;1.516;2024-01-27T05:08:54;4.07;;;3.00;;
84353;SDS011;74538;43.522;1.516;2024-01-27T05:11:29;3.90;;;2.73;;
84353;SDS011;74538;43.522;1.516;2024-01-27T05:13:56;3.90;;;2.60;;
84353;SDS011;74538;43.522;1.516;2024-01-27T05:16:21;4.33;;;2.93;;
84353;SDS011;74538;43.522;1.516;2024-01-27T05:18:47;4.45;;;3.15;;
84353;SDS011;74538;43.522;1.516;2024-01-27T05:21:13;3.67;;;2.40;;
84353;SDS011;74538;43.522;1.516;2024-01-27T05:23:39;3.70;;;2.47;;
84353;SDS011;74538;43.522;1.516;2024-01-27T05:26:07;4.30;;;2.70;;
84353;SDS011;74538;43.522;1.516;2024-01-27T05:28:33;3.47;;;2.42;;
84353;SDS011;74538;43.522;1.516;2024-01-27T05:30:58;4.27;;;3.00;;
84353;SDS011;74538;43.522;1.516;2024-01-27T05:33:24;4.30;;;2.80;;
84353;SDS011;74538;43.522;1.516;2024-01-27T05:35:49;3.80;;;2.63;;
84353;SDS011;74538;43.522;1.516;2024-01-27T05:38:15;3.73;;;2.50;;
84353;SDS011;74538;43.522;1.516;2024-01-27T05:40:41;4.15;;;2.85;;
84353;SDS011;74538;43.522;1.516;2024-01-27T05:43:07;3.88;;;2.63;;
84353;SDS011;74538;43.522;1.516;2024-01-27T05:45:32;3.53;;;2.47;;
84353;SDS011;74538;43.522;1.516;2024-01-27T05:47:57;4.60;;;2.50;;
84353;SDS011;74538;43.522;1.516;2024-01-27T05:50:23;3.43;;;2.33;;
84353;SDS011;74538;43.522;1.516;2024-01-27T05:52:48;3.50;;;2.45;;
84353;SDS011;74538;43.522;1.516;2024-01-27T05:55:14;3.57;;;2.30;;
84353;SDS011;74538;43.522;1.516;2024-01-27T05:57:41;3.50;;;2.30;;
84353;SDS011;74538;43.522;1.516;2024-01-27T06:00:07;3.73;;;2.47;;
84353;SDS011;74538;43.522;1.516;2024-01-27T06:02:34;3.92;;;2.42;;
84353;SDS011;74538;43.522;1.516;2024-01-27T06:05:01;3.50;;;2.30;;
84353;SDS011;74538;43.522;1.516;2024-01-27T06:07:27;3.50;;;2.28;;
84353;SDS011;74538;43.522;1.516;2024-01-27T06:09:52;3.63;;;2.00;;
84353;SDS011;74538;43.522;1.516;2024-01-27T06:12:17;3.90;;;2.60;;
84353;SDS011;74538;43.522;1.516;2024-01-27T06:14:44;3.30;;;2.10;;
84353;SDS011;74538;43.522;1.516;2024-01-27T06:17:09;3.27;;;1.97;;
84353;SDS011;74538;43.522;1.516;2024-01-27T06:19:34;3.42;;;2.30;;
84353;SDS011;74538;43.522;1.516;2024-01-27T06:22:00;3.03;;;2.10;;
84353;SDS011;74538;43.522;1.516;2024-01-27T06:24:25;3.20;;;2.10;;
84353;SDS011;74538;43.522;1.516;2024-01-27T06:26:51;3.10;;;2.10;;
84353;SDS011;74538;43.522;1.516;2024-01-27T06:29:16;3.13;;;1.80;;
84353;SDS011;74538;43.522;1.516;2024-01-27T06:31:43;2.95;;;1.80;;
84353;SDS011;74538;43.522;1.516;2024-01-27T06:34:08;3.00;;;1.97;;
84353;SDS011;74538;43.522;1.516;2024-01-27T06:36:34;3.10;;;1.90;;
84353;SDS011;74538;43.522;1.516;2024-01-27T06:38:59;3.50;;;2.20;;
84353;SDS011;74538;43.522;1.516;2024-01-27T06:41:25;3.30;;;2.13;;
84353;SDS011;74538;43.522;1.516;2024-01-27T06:43:50;3.33;;;1.90;;
84353;SDS011;74538;43.522;1.516;2024-01-27T06:46:16;3.30;;;2.03;;
84353;SDS011;74538;43.522;1.516;2024-01-27T06:48:41;3.40;;;1.98;;
84353;SDS011;74538;43.522;1.516;2024-01-27T06:51:07;3.33;;;2.10;;
84353;SDS011;74538;43.522;1.516;2024-01-27T06:53:32;3.07;;;1.87;;
84353;SDS011;74538;43.522;1.516;2024-01-27T06:55:58;3.17;;;2.03;;
84353;SDS011;74538;43.522;1.516;2024-01-27T06:58:23;3.00;;;1.90;;
84353;SDS011;74538;43.522;1.516;2024-01-27T07:00:49;3.10;;;1.70;;
84353;SDS011;74538;43.522;1.516;2024-01-27T07:03:14;2.93;;;1.70;;
84353;SDS011;74538;43.522;1.516;2024-01-27T07:05:40;3.00;;;1.70;;
84353;SDS011;74538;43.522;1.516;2024-01-27T07:08:06;2.90;;;1.70;;
84353;SDS011;74538;43.522;1.516;2024-01-27T07:10:32;3.00;;;1.70;;
84353;SDS011;74538;43.522;1.516;2024-01-27T07:12:58;2.80;;;1.60;;
84353;SDS011;74538;43.522;1.516;2024-01-27T07:15:23;2.93;;;1.70;;
84353;SDS011;74538;43.522;1.516;2024-01-27T07:17:49;2.90;;;1.90;;
84353;SDS011;74538;43.522;1.516;2024-01-27T07:20:15;3.27;;;1.73;;
84353;SDS011;74538;43.522;1.516;2024-01-27T07:22:41;3.27;;;1.70;;
84353;SDS011;74538;43.522;1.516;2024-01-27T07:25:06;2.80;;;1.45;;
84353;SDS011;74538;43.522;1.516;2024-01-27T07:27:35;3.00;;;2.08;;
84353;SDS011;74538;43.522;1.516;2024-01-27T07:30:00;2.90;;;1.70;;
84353;SDS011;74538;43.522;1.516;2024-01-27T07:32:27;3.05;;;1.70;;
84353;SDS011;74538;43.522;1.516;2024-01-27T07:34:52;2.85;;;1.58;;
84353;SDS011;74538;43.522;1.516;2024-01-27T07:37:18;2.83;;;1.60;;
84353;SDS011;74538;43.522;1.516;2024-01-27T07:39:44;2.88;;;1.70;;
84353;SDS011;74538;43.522;1.516;2024-01-27T07:42:09;2.83;;;1.50;;
84353;SDS011;74538;43.522;1.516;2024-01-27T07:44:35;2.60;;;1.33;;
84353;SDS011;74538;43.522;1.516;2024-01-27T07:47:00;3.05;;;1.42;;
84353;SDS011;74538;43.522;1.516;2024-01-27T07:49:26;3.33;;;1.57;;
84353;SDS011;74538;43.522;1.516;2024-01-27T07:51:51;2.60;;;1.43;;
84353;SDS011;74538;43.522;1.516;2024-01-27T07:54:16;2.70;;;1.30;;
84353;SDS011;74538;43.522;1.516;2024-01-27T07:56:42;2.63;;;1.40;;
84353;SDS011;74538;43.522;1.516;2024-01-27T07:59:07;2.70;;;1.53;;
84353;SDS011;74538;43.522;1.516;2024-01-27T08:01:39;2.70;;;1.40;;
84353;SDS011;74538;43.522;1.516;2024-01-27T08:04:07;2.63;;;1.50;;
84353;SDS011;74538;43.522;1.516;2024-01-27T08:06:33;2.70;;;1.47;;
84353;SDS011;74538;43.522;1.516;2024-01-27T08:08:58;2.60;;;1.27;;
84353;SDS011;74538;43.522;1.516;2024-01-27T08:11:24;3.10;;;1.70;;
84353;SDS011;74538;43.522;1.516;2024-01-27T08:13:50;2.85;;;1.67;;
84353;SDS011;74538;43.522;1.516;2024-01-27T08:16:15;2.80;;;1.40;;
84353;SDS011;74538;43.522;1.516;2024-01-27T08:18:41;2.67;;;1.33;;
84353;SDS011;74538;43.522;1.516;2024-01-27T08:21:09;2.33;;;1.10;;
84353;SDS011;74538;43.522;1.516;2024-01-27T08:23:35;2.60;;;1.30;;
84353;SDS011;74538;43.522;1.516;2024-01-27T08:26:01;2.50;;;1.30;;
84353;SDS011;74538;43.522;1.516;2024-01-27T08:28:26;2.57;;;1.37;;
84353;SDS011;74538;43.522;1.516;2024-01-27T08:30:52;2.60;;;1.30;;
84353;SDS011;74538;43.522;1.516;2024-01-27T08:33:17;2.53;;;1.13;;
84353;SDS011;74538;43.522;1.516;2024-01-27T08:35:43;2.63;;;1.20;;
84353;SDS011;74538;43.522;1.516;2024-01-27T08:38:11;2.70;;;1.45;;
84353;SDS011;74538;43.522;1.516;2024-01-27T08:40:37;3.03;;;1.40;;
84353;SDS011;74538;43.522;1.516;2024-01-27T08:43:02;2.70;;;1.37;;
84353;SDS011;74538;43.522;1.516;2024-01-27T08:45:28;2.53;;;1.35;;
84353;SDS011;74538;43.522;1.516;2024-01-27T08:47:54;2.70;;;1.30;;
84353;SDS011;74538;43.522;1.516;2024-01-27T08:50:19;2.57;;;1.43;;
84353;SDS011;74538;43.522;1.516;2024-01-27T08:52:44;2.70;;;1.30;;
84353;SDS011;74538;43.522;1.516;2024-01-27T08:55:11;2.50;;;1.30;;
84353;SDS011;74538;43.522;1.516;2024-01-27T08:57:37;2.70;;;1.10;;
84353;SDS011;74538;43.522;1.516;2024-01-27T09:00:02;2.55;;;1.42;;
84353;SDS011;74538;43.522;1.516;2024-01-27T09:02:28;2.50;;;1.33;;
84353;SDS011;74538;43.522;1.516;2024-01-27T09:04:54;2.60;;;1.30;;
84353;SDS011;74538;43.522;1.516;2024-01-27T09:07:19;2.43;;;1.20;;
84353;SDS011;74538;43.522;1.516;2024-01-27T09:09:44;2.53;;;1.20;;
84353;SDS011;74538;43.522;1.516;2024-01-27T09:12:10;2.45;;;1.08;;
84353;SDS011;74538;43.522;1.516;2024-01-27T09:14:36;2.87;;;1.50;;
84353;SDS011;74538;43.522;1.516;2024-01-27T09:17:01;2.63;;;1.33;;
84353;SDS011;74538;43.522;1.516;2024-01-27T09:19:27;2.38;;;1.13;;
84353;SDS011;74538;43.522;1.516;2024-01-27T09:21:52;2.40;;;1.20;;
84353;SDS011;74538;43.522;1.516;2024-01-27T09:24:18;2.60;;;1.20;;
84353;SDS011;74538;43.522;1.516;2024-01-27T09:26:43;2.60;;;1.30;;
84353;SDS011;74538;43.522;1.516;2024-01-27T09:29:09;2.30;;;1.23;;
84353;SDS011;74538;43.522;1.516;2024-01-27T09:31:34;2.50;;;1.30;;
84353;SDS011;74538;43.522;1.516;2024-01-27T09:34:00;2.60;;;1.30;;
84353;SDS011;74538;43.522;1.516;2024-01-27T09:36:26;2.63;;;1.30;;
84353;SDS011;74538;43.522;1.516;2024-01-27T09:38:51;2.40;;;1.20;;
84353;SDS011;74538;43.522;1.516;2024-01-27T09:41:17;2.60;;;1.40;;
84353;SDS011;74538;43.522;1.516;2024-01-27T09:43:43;3.30;;;1.60;;
84353;SDS011;74538;43.522;1.516;2024-01-27T09:46:10;2.45;;;1.10;;
84353;SDS011;74538;43.522;1.516;2024-01-27T09:48:36;2.40;;;1.20;;
84353;SDS011;74538;43.522;1.516;2024-01-27T09:51:03;2.97;;;1.30;;
84353;SDS011;74538;43.522;1.516;2024-01-27T09:53:29;2.80;;;1.38;;
84353;SDS011;74538;43.522;1.516;2024-01-27T09:55:58;2.70;;;1.30;;
84353;SDS011;74538;43.522;1.516;2024-01-27T09:58:24;2.57;;;1.33;;
84353;SDS011;74538;43.522;1.516;2024-01-27T10:00:56;2.88;;;1.30;;
84353;SDS011;74538;43.522;1.516;2024-01-27T10:03:26;3.15;;;1.50;;
84353;SDS011;74538;43.522;1.516;2024-01-27T10:05:53;2.63;;;1.20;;
84353;SDS011;74538;43.522;1.516;2024-01-27T10:08:22;2.50;;;1.40;;
84353;SDS011;74538;43.522;1.516;2024-01-27T10:10:53;2.60;;;1.30;;
84353;SDS011;74538;43.522;1.516;2024-01-27T10:13:20;3.22;;;1.10;;
84353;SDS011;74538;43.522;1.516;2024-01-27T10:16:05;2.85;;;1.50;;
84353;SDS011;74538;43.522;1.516;2024-01-27T10:18:31;2.80;;;1.40;;
84353;SDS011;74538;43.522;1.516;2024-01-27T10:20:57;2.45;;;1.13;;
84353;SDS011;74538;43.522;1.516;2024-01-27T10:23:23;3.20;;;1.40;;
84353;SDS011;74538;43.522;1.516;2024-01-27T10:25:49;2.70;;;1.30;;
84353;SDS011;74538;43.522;1.516;2024-01-27T10:28:14;2.80;;;1.30;;
84353;SDS011;74538;43.522;1.516;2024-01-27T10:30:40;2.77;;;1.57;;
84353;SDS011;74538;43.522;1.516;2024-01-27T10:33:09;2.60;;;1.20;;
84353;SDS011;74538;43.522;1.516;2024-01-27T10:35:35;2.72;;;1.52;;
84353;SDS011;74538;43.522;1.516;2024-01-27T10:38:01;2.80;;;1.50;;
84353;SDS011;74538;43.522;1.516;2024-01-27T10:40:26;3.40;;;1.70;;
84353;SDS011;74538;43.522;1.516;2024-01-27T10:43:00;2.50;;;1.33;;
84353;SDS011;74538;43.522;1.516;2024-01-27T10:45:29;2.50;;;1.27;;
84353;SDS011;74538;43.522;1.516;2024-01-27T10:48:05;2.75;;;1.40;;
84353;SDS011;74538;43.522;1.516;2024-01-27T10:50:35;2.70;;;1.40;;
84353;SDS011;74538;43.522;1.516;2024-01-27T10:53:03;2.78;;;1.45;;
84353;SDS011;74538;43.522;1.516;2024-01-27T10:55:46;2.70;;;1.45;;
84353;SDS011;74538;43.522;1.516;2024-01-27T10:58:12;2.73;;;1.50;;
84353;SDS011;74538;43.522;1.516;2024-01-27T11:00:37;3.70;;;1.50;;
84353;SDS011;74538;43.522;1.516;2024-01-27T11:03:04;2.60;;;1.30;;
84353;SDS011;74538;43.522;1.516;2024-01-27T11:05:32;2.70;;;1.60;;
84353;SDS011;74538;43.522;1.516;2024-01-27T11:08:01;3.20;;;1.40;;
84353;SDS011;74538;43.522;1.516;2024-01-27T11:10:27;2.67;;;1.23;;
84353;SDS011;74538;43.522;1.516;2024-01-27T11:13:00;2.80;;;1.50;;
84353;SDS011;74538;43.522;1.516;2024-01-27T11:15:26;2.73;;;1.53;;
84353;SDS011;74538;43.522;1.516;2024-01-27T11:17:56;2.85;;;1.48;;
84353;SDS011;74538;43.522;1.516;2024-01-27T11:20:23;2.90;;;1.53;;
84353;SDS011;74538;43.522;1.516;2024-01-27T11:22:49;3.05;;;1.48;;
84353;SDS011;74538;43.522;1.516;2024-01-27T11:25:16;2.70;;;1.30;;
84353;SDS011;74538;43.522;1.516;2024-01-27T11:27:43;2.50;;;1.30;;
84353;SDS011;74538;43.522;1.516;2024-01-27T11:30:29;2.60;;;1.40;;
84353;SDS011;74538;43.522;1.516;2024-01-27T11:33:00;2.50;;;1.30;;
84353;SDS011;74538;43.522;1.516;2024-01-27T11:35:26;2.67;;;1.40;;
84353;SDS011;74538;43.522;1.516;2024-01-27T11:37:52;2.80;;;1.35;;
84353;SDS011;74538;43.522;1.516;2024-01-27T11:40:17;2.83;;;1.47;;
84353;SDS011;74538;43.522;1.516;2024-01-27T11:42:43;2.72;;;1.52;;
84353;SDS011;74538;43.522;1.516;2024-01-27T11:45:18;3.20;;;1.60;;
84353;SDS011;74538;43.522;1.516;2024-01-27T11:47:43;2.67;;;1.40;;
84353;SDS011;74538;43.522;1.516;2024-01-27T11:50:09;2.93;;;1.80;;
84353;SDS011;74538;43.522;1.516;2024-01-27T11:52:34;2.80;;;1.53;;
84353;SDS011;74538;43.522;1.516;2024-01-27T11:55:00;3.03;;;1.73;;
84353;SDS011;74538;43.522;1.516;2024-01-27T11:57:26;2.63;;;1.40;;
84353;SDS011;74538;43.522;1.516;2024-01-27T11:59:52;2.88;;;1.60;;
84353;SDS011;74538;43.522;1.516;2024-01-27T12:02:18;3.13;;;1.60;;
84353;SDS011;74538;43.522;1.516;2024-01-27T12:04:44;2.90;;;1.40;;
84353;SDS011;74538;43.522;1.516;2024-01-27T12:07:09;3.05;;;1.60;;
84353;SDS011;74538;43.522;1.516;2024-01-27T12:09:35;4.60;;;1.60;;
84353;SDS011;74538;43.522;1.516;2024-01-27T12:12:02;2.83;;;1.52;;
84353;SDS011;74538;43.522;1.516;2024-01-27T12:14:40;3.05;;;1.50;;
84353;SDS011;74538;43.522;1.516;2024-01-27T12:17:10;2.80;;;1.47;;
84353;SDS011;74538;43.522;1.516;2024-01-27T12:19:36;2.70;;;1.60;;
84353;SDS011;74538;43.522;1.516;2024-01-27T12:22:03;2.60;;;1.48;;
84353;SDS011;74538;43.522;1.516;2024-01-27T12:24:29;2.90;;;1.40;;
84353;SDS011;74538;43.522;1.516;2024-01-27T12:26:55;2.90;;;1.50;;
84353;SDS011;74538;43.522;1.516;2024-01-27T12:29:22;3.10;;;1.47;;
84353;SDS011;74538;43.522;1.516;2024-01-27T12:31:48;2.50;;;1.20;;
84353;SDS011;74538;43.522;1.516;2024-01-27T12:34:14;3.38;;;1.52;;
84353;SDS011;74538;43.522;1.516;2024-01-27T12:36:43;2.88;;;1.55;;
84353;SDS011;74538;43.522;1.516;2024-01-27T12:39:09;3.60;;;1.83;;
84353;SDS011;74538;43.522;1.516;2024-01-27T12:41:35;2.75;;;1.40;;
84353;SDS011;74538;43.522;1.516;2024-01-27T12:44:01;3.45;;;1.60;;
84353;SDS011;74538;43.522;1.516;2024-01-27T12:46:27;3.38;;;1.70;;
84353;SDS011;74538;43.522;1.516;2024-01-27T12:48:52;2.80;;;1.63;;
84353;SDS011;74538;43.522;1.516;2024-01-27T12:51:18;3.33;;;1.77;;
84353;SDS011;74538;43.522;1.516;2024-01-27T12:53:44;2.90;;;1.60;;
84353;SDS011;74538;43.522;1.516;2024-01-27T12:56:13;3.97;;;1.73;;
84353;SDS011;74538;43.522;1.516;2024-01-27T12:58:40;2.97;;;1.88;;
84353;SDS011;74538;43.522;1.516;2024-01-27T13:01:07;3.10;;;1.90;;
84353;SDS011;74538;43.522;1.516;2024-01-27T13:03:33;3.50;;;1.92;;
84353;SDS011;74538;43.522;1.516;2024-01-27T13:06:00;3.23;;;1.80;;
84353;SDS011;74538;43.522;1.516;2024-01-27T13:08:27;3.17;;;1.60;;
84353;SDS011;74538;43.522;1.516;2024-01-27T13:10:52;3.00;;;1.77;;
84353;SDS011;74538;43.522;1.516;2024-01-27T13:13:18;3.30;;;1.90;;
84353;SDS011;74538;43.522;1.516;2024-01-27T13:15:44;3.20;;;1.80;;
84353;SDS011;74538;43.522;1.516;2024-01-27T13:18:09;3.40;;;2.13;;
84353;SDS011;74538;43.522;1.516;2024-01-27T13:20:35;3.10;;;1.90;;
84353;SDS011;74538;43.522;1.516;2024-01-27T13:23:01;4.47;;;2.00;;
84353;SDS011;74538;43.522;1.516;2024-01-27T13:25:27;3.50;;;2.00;;
84353;SDS011;74538;43.522;1.516;2024-01-27T13:27:52;3.10;;;1.70;;
84353;SDS011;74538;43.522;1.516;2024-01-27T13:30:18;3.13;;;1.80;;
84353;SDS011;74538;43.522;1.516;2024-01-27T13:32:43;3.85;;;2.03;;
84353;SDS011;74538;43.522;1.516;2024-01-27T13:35:09;3.40;;;1.80;;
84353;SDS011;74538;43.522;1.516;2024-01-27T13:37:35;3.33;;;1.83;;
84353;SDS011;74538;43.522;1.516;2024-01-27T13:40:01;3.22;;;1.70;;
84353;SDS011;74538;43.522;1.516;2024-01-27T13:42:27;3.67;;;1.73;;
84353;SDS011;74538;43.522;1.516;2024-01-27T13:44:52;3.50;;;1.85;;
84353;SDS011;74538;43.522;1.516;2024-01-27T13:47:18;4.40;;;1.80;;
84353;SDS011;74538;43.522;1.516;2024-01-27T13:49:44;3.77;;;1.90;;
84353;SDS011;74538;43.522;1.516;2024-01-27T13:52:09;3.90;;;2.00;;
84353;SDS011;74538;43.522;1.516;2024-01-27T13:54:35;3.40;;;1.88;;
84353;SDS011;74538;43.522;1.516;2024-01-27T13:57:04;3.20;;;1.80;;
84353;SDS011;74538;43.522;1.516;2024-01-27T13:59:30;3.20;;;1.92;;
84353;SDS011;74538;43.522;1.516;2024-01-27T14:01:56;2.80;;;1.67;;
84353;SDS011;74538;43.522;1.516;2024-01-27T14:04:22;3.00;;;1.77;;
84353;SDS011;74538;43.522;1.516;2024-01-27T14:06:50;3.40;;;1.92;;
84353;SDS011;74538;43.522;1.516;2024-01-27T14:09:16;3.50;;;2.03;;
84353;SDS011;74538;43.522;1.516;2024-01-27T14:11:41;3.20;;;2.00;;
84353;SDS011;74538;43.522;1.516;2024-01-27T14:14:07;3.55;;;2.13;;
84353;SDS011;74538;43.522;1.516;2024-01-27T14:16:32;3.80;;;2.37;;
84353;SDS011;74538;43.522;1.516;2024-01-27T14:18:58;3.67;;;2.00;;
84353;SDS011;74538;43.522;1.516;2024-01-27T14:21:23;3.43;;;2.10;;
84353;SDS011;74538;43.522;1.516;2024-01-27T14:23:49;4.00;;;2.00;;
84353;SDS011;74538;43.522;1.516;2024-01-27T14:26:15;4.20;;;2.60;;
84353;SDS011;74538;43.522;1.516;2024-01-27T14:28:41;4.00;;;2.30;;
84353;SDS011;74538;43.522;1.516;2024-01-27T14:31:07;5.35;;;2.67;;
84353;SDS011;74538;43.522;1.516;2024-01-27T14:33:32;3.70;;;2.30;;
84353;SDS011;74538;43.522;1.516;2024-01-27T14:35:58;4.30;;;2.63;;
84353;SDS011;74538;43.522;1.516;2024-01-27T14:38:23;4.27;;;2.40;;
84353;SDS011;74538;43.522;1.516;2024-01-27T14:40:49;3.97;;;2.40;;